Terminal Aerodrome Forecast
Issued by NWS

Home | Current Version | Previous Version | Text Only | Print | Product List | Glossary On
Versions: 1 2 3 4 5 6 7 8 9 10 11 12 13 14 15 16 17 18 19 20 21 22 23 24 25
646
FTUS41 KBUF 101134
TAFJHW
TAF
KJHW 101134Z 1012/1112 26013KT 3SM -SN SCT007 BKN015
      TEMPO 1012/1016 1SM -SN BKN007
     FM101600 27015G22KT 2SM -SN BLSN OVC007
     FM102300 28013G19KT 2SM -SN OVC015
     FM110400 29012KT 1/2SM SN OVC007
     FM110800 28014G21KT 1/2SM SN BLSN OVC007
      AMD LTD TO CLD VIS AND WIND=

USA.gov is the U.S. government's official web portal to all federal, state and local government web resources and services.